createdAt,value
2018-06-17T00:01:53.482Z,19.70
2018-06-17T00:04:26.242Z,19.70
2018-06-17T00:06:53.795Z,19.60
2018-06-17T00:09:21.340Z,19.60
2018-06-17T00:11:48.861Z,19.60
2018-06-17T00:17:35.536Z,19.50
2018-06-17T00:23:11.612Z,19.40
2018-06-17T00:25:39.115Z,19.40
2018-06-17T00:28:06.648Z,19.40
2018-06-17T00:33:01.735Z,19.40
2018-06-17T00:35:35.036Z,19.40
2018-06-17T00:38:02.584Z,19.40
2018-06-17T00:40:30.108Z,19.30
2018-06-17T00:42:57.629Z,19.30
2018-06-17T00:45:25.153Z,19.30
2018-06-17T00:47:52.668Z,19.20
2018-06-17T00:50:20.189Z,19.10
2018-06-17T00:52:47.706Z,19.00
2018-06-17T00:55:15.221Z,18.90
2018-06-17T01:00:18.440Z,18.70
2018-06-17T01:02:46.102Z,18.70
2018-06-17T01:07:41.525Z,18.50
2018-06-17T01:10:09.031Z,18.50
2018-06-17T01:12:36.848Z,18.40
2018-06-17T01:17:31.993Z,18.30
2018-06-17T01:19:59.535Z,18.30
2018-06-17T01:22:27.046Z,18.20
2018-06-17T01:24:54.555Z,18.10
2018-06-17T01:27:22.085Z,18.00
2018-06-17T01:29:49.624Z,18.00
2018-06-17T01:32:17.173Z,17.90
2018-06-17T01:34:44.707Z,17.90
2018-06-17T01:37:12.349Z,17.90
2018-06-17T01:42:07.486Z,18.00
2018-06-17T01:44:35.345Z,18.10
2018-06-17T01:47:02.901Z,18.10
2018-06-17T01:49:30.435Z,18.10
2018-06-17T01:51:58.056Z,18.20
2018-06-17T01:54:25.595Z,18.20
2018-06-17T01:56:53.170Z,18.20
2018-06-17T01:59:20.895Z,18.20
2018-06-17T02:01:48.501Z,18.30
2018-06-17T02:04:21.680Z,18.30
2018-06-17T02:06:55.059Z,18.30
2018-06-17T02:09:28.383Z,18.40
2018-06-17T02:12:01.643Z,18.40
2018-06-17T02:14:35.000Z,18.40
2018-06-17T02:17:02.541Z,18.40
2018-06-17T02:19:30.086Z,18.40
2018-06-17T02:21:57.623Z,18.50
2018-06-17T02:24:25.148Z,18.50
2018-06-17T02:26:52.667Z,18.50
2018-06-17T02:29:20.208Z,18.50
2018-06-17T02:31:47.736Z,18.50
2018-06-17T02:34:15.247Z,18.50
2018-06-17T02:36:42.776Z,18.50
2018-06-17T02:39:10.287Z,18.50
2018-06-17T02:41:38.091Z,18.50
2018-06-17T02:44:05.777Z,18.50
2018-06-17T02:46:39.067Z,18.50
2018-06-17T02:49:13.117Z,18.50
2018-06-17T02:51:46.407Z,18.50
2018-06-17T02:54:19.781Z,18.50
2018-06-17T02:56:47.411Z,18.50
2018-06-17T02:59:14.937Z,18.50
2018-06-17T03:01:42.463Z,18.50
2018-06-17T03:04:09.975Z,18.50
2018-06-17T03:06:37.492Z,18.50
2018-06-17T03:09:07.763Z,18.50
2018-06-17T03:11:35.307Z,18.60
2018-06-17T03:14:02.825Z,18.50
2018-06-17T03:16:30.332Z,18.60
2018-06-17T03:18:57.839Z,18.50
2018-06-17T03:21:25.350Z,18.60
2018-06-17T03:23:52.876Z,18.60
2018-06-17T03:26:26.268Z,18.60
2018-06-17T03:28:59.455Z,18.60
2018-06-17T03:31:31.601Z,18.60
2018-06-17T03:33:59.095Z,18.60
2018-06-17T03:36:26.595Z,18.60
2018-06-17T03:38:54.107Z,18.70
2018-06-17T03:41:21.648Z,18.70
2018-06-17T03:43:49.147Z,18.70
2018-06-17T03:46:16.657Z,18.70
2018-06-17T03:48:44.155Z,18.70
2018-06-17T03:51:11.658Z,18.70
2018-06-17T03:53:39.185Z,18.70
2018-06-17T03:56:06.723Z,18.80
2018-06-17T03:58:34.242Z,18.80
2018-06-17T04:01:01.773Z,18.90
2018-06-17T04:03:29.307Z,18.90
2018-06-17T04:05:56.836Z,19.00
2018-06-17T04:08:24.343Z,19.00
2018-06-17T04:10:51.835Z,19.10
2018-06-17T04:13:19.378Z,19.20
2018-06-17T04:15:46.908Z,19.20
2018-06-17T04:18:14.423Z,19.30
2018-06-17T04:20:41.944Z,19.40
2018-06-17T04:23:09.472Z,19.50
2018-06-17T04:25:37.076Z,19.60
2018-06-17T04:28:04.588Z,19.70
2018-06-17T04:30:32.133Z,19.80
2018-06-17T04:32:59.676Z,20.00
2018-06-17T04:35:27.211Z,20.10
2018-06-17T04:37:54.723Z,20.20
2018-06-17T04:40:22.301Z,20.30
2018-06-17T04:42:49.814Z,20.40
2018-06-17T04:45:17.342Z,20.60
2018-06-17T04:47:44.864Z,20.60
2018-06-17T04:50:12.427Z,20.70
2018-06-17T04:52:39.939Z,20.80
2018-06-17T04:55:07.470Z,20.90
2018-06-17T04:57:34.983Z,21.00
2018-06-17T05:00:02.574Z,21.10
2018-06-17T05:02:30.079Z,21.20
2018-06-17T05:04:57.594Z,21.40
2018-06-17T05:07:25.099Z,21.50
2018-06-17T05:09:53.021Z,21.80
2018-06-17T05:12:20.548Z,21.90
2018-06-17T05:14:48.132Z,22.00
2018-06-17T05:17:15.684Z,22.00
2018-06-17T05:19:43.215Z,22.10
2018-06-17T05:22:10.739Z,22.00
2018-06-17T05:24:38.275Z,22.00
2018-06-17T05:27:05.816Z,21.90
2018-06-17T05:29:33.377Z,21.90
2018-06-17T05:32:00.944Z,22.10
2018-06-17T05:34:28.468Z,22.40
2018-06-17T05:36:56.318Z,23.80
2018-06-17T05:39:23.828Z,26.10
2018-06-17T05:41:51.381Z,28.50
2018-06-17T05:44:18.899Z,30.30
2018-06-17T05:46:46.439Z,31.50
2018-06-17T05:49:13.961Z,33.20
2018-06-17T05:51:41.497Z,34.60
2018-06-17T05:54:09.018Z,35.50
2018-06-17T05:56:36.547Z,36.20
2018-06-17T05:59:04.167Z,35.80
2018-06-17T06:01:31.720Z,35.80
2018-06-17T06:03:59.270Z,35.10
2018-06-17T06:06:26.821Z,33.90
2018-06-17T06:08:54.349Z,33.00
2018-06-17T06:11:21.893Z,32.10
2018-06-17T06:13:49.420Z,31.30
2018-06-17T06:16:16.939Z,31.40
2018-06-17T06:18:44.454Z,32.20
2018-06-17T06:21:11.976Z,32.20
2018-06-17T06:23:39.519Z,31.70
2018-06-17T06:26:07.041Z,32.60
2018-06-17T06:28:34.569Z,33.70
2018-06-17T06:31:02.136Z,33.70
2018-06-17T06:33:29.616Z,33.60
2018-06-17T06:35:57.141Z,34.30
2018-06-17T06:38:24.641Z,35.60
2018-06-17T06:40:52.167Z,35.10
2018-06-17T06:43:19.694Z,34.30
2018-06-17T06:45:47.203Z,34.80
2018-06-17T06:50:42.460Z,35.80
2018-06-17T06:53:09.978Z,36.40
2018-06-17T06:55:37.488Z,37.30
2018-06-17T06:58:05.236Z,36.10
2018-06-17T07:00:32.743Z,34.90
2018-06-17T07:03:17.970Z,34.20
2018-06-17T07:06:03.277Z,33.50
2018-06-17T07:08:48.544Z,33.70
2018-06-17T07:11:16.050Z,33.00
2018-06-17T07:13:43.583Z,32.60
2018-06-17T07:16:28.815Z,34.20
2018-06-17T07:18:56.340Z,35.80
2018-06-17T07:23:51.464Z,37.60
2018-06-17T07:26:44.703Z,38.00
2018-06-17T07:29:38.048Z,38.30
2018-06-17T07:32:05.580Z,38.60
2018-06-17T07:34:33.153Z,38.80
2018-06-17T07:37:00.667Z,38.80
2018-06-17T07:41:38.467Z,39.00
2018-06-17T07:44:05.992Z,39.00
2018-06-17T07:46:33.508Z,36.60
2018-06-17T07:49:44.880Z,36.60
2018-06-17T07:52:31.373Z,37.10
2018-06-17T07:54:58.899Z,37.70
2018-06-17T07:57:27.710Z,37.80
2018-06-17T07:59:55.232Z,37.90
2018-06-17T08:02:22.754Z,37.60
2018-06-17T08:04:50.316Z,37.50
2018-06-17T08:09:45.409Z,37.20
2018-06-17T08:12:13.187Z,37.30
2018-06-17T08:14:40.844Z,37.10
2018-06-17T08:17:08.363Z,37.10
2018-06-17T08:19:35.959Z,37.10
2018-06-17T08:22:03.740Z,37.00
2018-06-17T08:24:31.812Z,36.90
2018-06-17T08:26:59.316Z,36.80
2018-06-17T08:29:26.856Z,36.80
2018-06-17T08:31:54.592Z,36.60
2018-06-17T08:34:22.113Z,36.60
2018-06-17T08:36:49.649Z,36.70
2018-06-17T08:39:18.487Z,36.90
2018-06-17T08:41:46.036Z,37.10
2018-06-17T08:44:14.322Z,37.30
2018-06-17T08:46:42.517Z,37.40
2018-06-17T08:49:10.276Z,37.60
2018-06-17T08:51:37.806Z,37.20
2018-06-17T08:54:05.319Z,36.30
2018-06-17T08:56:32.845Z,35.40
2018-06-17T08:59:00.817Z,34.90
2018-06-17T09:01:28.791Z,35.30
2018-06-17T09:03:56.283Z,35.60
2018-06-17T09:06:24.216Z,36.10
2018-06-17T09:08:52.075Z,36.50
2018-06-17T09:11:20.055Z,36.80
2018-06-17T09:13:47.600Z,37.10
2018-06-17T09:16:15.132Z,37.20
2018-06-17T09:18:42.692Z,37.00
2018-06-17T09:21:10.215Z,36.80
2018-06-17T09:23:37.752Z,36.60
2018-06-17T09:26:05.282Z,36.70
2018-06-17T09:28:32.811Z,36.80
2018-06-17T09:31:00.329Z,36.80
2018-06-17T09:33:27.860Z,36.90
2018-06-17T09:36:11.820Z,37.40
2018-06-17T09:38:39.351Z,37.80
2018-06-17T09:41:06.892Z,38.00
2018-06-17T09:43:34.428Z,38.20
2018-06-17T09:46:01.981Z,38.50
2018-06-17T09:48:29.504Z,38.90
2018-06-17T09:50:57.035Z,39.00
2018-06-17T09:53:24.571Z,38.80
2018-06-17T09:55:52.124Z,38.60
2018-06-17T09:58:19.660Z,37.70
2018-06-17T10:00:47.192Z,36.70
2018-06-17T10:03:14.736Z,35.50
2018-06-17T10:05:42.284Z,34.60
2018-06-17T10:08:09.822Z,33.90
2018-06-17T10:10:48.107Z,33.90
2018-06-17T10:13:16.201Z,34.80
2018-06-17T10:15:44.359Z,35.90
2018-06-17T10:18:13.156Z,36.80
2018-06-17T10:23:08.581Z,37.40
2018-06-17T10:25:36.092Z,37.30
2018-06-17T10:28:04.103Z,37.10
2018-06-17T10:30:31.609Z,37.30
2018-06-17T10:32:59.118Z,37.40
2018-06-17T10:35:26.630Z,37.50
2018-06-17T10:37:54.135Z,37.60
2018-06-17T10:40:21.640Z,36.80
2018-06-17T10:42:49.167Z,36.60
2018-06-17T10:45:16.927Z,37.00
2018-06-17T10:47:45.503Z,37.60
2018-06-17T10:50:13.047Z,37.60
2018-06-17T10:52:41.751Z,37.10
2018-06-17T10:55:10.041Z,36.80
2018-06-17T10:57:37.891Z,36.60
2018-06-17T11:00:06.283Z,35.90
2018-06-17T11:02:33.979Z,35.00
2018-06-17T11:05:01.515Z,34.60
2018-06-17T11:07:29.020Z,35.20
2018-06-17T11:09:56.537Z,35.50
2018-06-17T11:12:24.046Z,35.00
2018-06-17T11:14:51.547Z,35.00
2018-06-17T11:17:19.064Z,35.70
2018-06-17T11:19:46.999Z,36.40
2018-06-17T11:22:14.475Z,36.20
2018-06-17T11:24:41.964Z,35.70
2018-06-17T11:27:09.508Z,35.50
2018-06-17T11:29:37.102Z,35.00
2018-06-17T11:32:04.767Z,34.40
2018-06-17T11:34:32.289Z,33.90
2018-06-17T11:36:59.784Z,34.30
2018-06-17T11:39:27.309Z,35.20
2018-06-17T11:41:54.800Z,36.00
2018-06-17T11:44:22.333Z,36.90
2018-06-17T11:46:49.851Z,37.50
2018-06-17T11:49:17.343Z,37.70
2018-06-17T11:51:44.868Z,37.60
2018-06-17T11:54:12.472Z,37.80
2018-06-17T11:56:40.009Z,38.30
2018-06-17T11:59:07.528Z,38.30
2018-06-17T12:01:35.059Z,38.20
2018-06-17T12:04:02.559Z,37.70
2018-06-17T12:06:30.124Z,37.60
2018-06-17T12:09:11.063Z,37.40
2018-06-17T12:14:51.564Z,36.70
2018-06-17T12:17:25.656Z,36.40
2018-06-17T12:19:53.199Z,36.30
2018-06-17T12:22:37.052Z,36.70
2018-06-17T12:25:04.615Z,37.20
2018-06-17T12:27:32.141Z,37.10
2018-06-17T12:29:59.656Z,36.60
2018-06-17T12:32:27.159Z,36.40
2018-06-17T12:34:54.652Z,36.30
2018-06-17T12:37:22.327Z,36.30
2018-06-17T12:39:49.852Z,36.20
2018-06-17T12:42:17.358Z,36.20
2018-06-17T12:44:44.856Z,36.20
2018-06-17T12:47:12.354Z,36.30
2018-06-17T12:49:39.852Z,36.30
2018-06-17T12:52:07.381Z,36.50
2018-06-17T12:54:34.887Z,36.30
2018-06-17T12:57:02.404Z,36.10
2018-06-17T13:01:57.504Z,35.70
2018-06-17T13:04:25.045Z,35.40
2018-06-17T13:06:52.545Z,35.10
2018-06-17T13:09:20.051Z,34.70
2018-06-17T13:11:47.573Z,34.30
2018-06-17T13:14:15.100Z,33.80
2018-06-17T13:17:09.163Z,33.30
2018-06-17T13:19:36.704Z,32.80
2018-06-17T13:22:04.256Z,32.40
2018-06-17T13:24:31.792Z,31.80
2018-06-17T13:26:59.332Z,31.10
2018-06-17T13:29:26.855Z,30.30
2018-06-17T13:31:54.409Z,29.70
2018-06-17T13:34:21.932Z,29.00
2018-06-17T13:39:50.139Z,28.00
2018-06-17T13:42:27.737Z,27.50
2018-06-17T13:44:55.264Z,27.00
2018-06-17T13:47:22.795Z,26.60
2018-06-17T13:49:50.331Z,26.30
2018-06-17T13:52:18.016Z,26.10
2018-06-17T13:54:45.553Z,25.90
2018-06-17T13:57:13.071Z,25.80
2018-06-17T13:59:40.605Z,25.70
2018-06-17T14:02:08.157Z,25.60
2018-06-17T14:04:35.672Z,25.60
2018-06-17T14:07:03.215Z,25.60
2018-06-17T14:09:30.756Z,25.70
2018-06-17T14:11:58.279Z,25.70
2018-06-17T14:14:25.832Z,25.90
2018-06-17T14:16:53.750Z,26.00
2018-06-17T14:19:21.279Z,26.20
2018-06-17T14:21:48.809Z,26.50
2018-06-17T14:24:23.090Z,26.60
2018-06-17T14:26:50.739Z,26.70
2018-06-17T14:29:20.297Z,26.70
2018-06-17T14:31:47.816Z,26.80
2018-06-17T14:34:15.335Z,26.80
2018-06-17T14:36:42.855Z,26.70
2018-06-17T14:39:11.724Z,26.80
2018-06-17T14:41:40.348Z,26.80
2018-06-17T14:44:13.763Z,26.80
2018-06-17T14:46:47.084Z,26.70
2018-06-17T14:49:20.411Z,26.60
2018-06-17T14:52:10.703Z,26.50
2018-06-17T14:54:51.285Z,26.40
2018-06-17T14:57:18.869Z,26.40
2018-06-17T14:59:46.364Z,26.40
2018-06-17T15:02:13.900Z,26.40
2018-06-17T15:04:41.423Z,26.30
2018-06-17T15:07:08.998Z,26.30
2018-06-17T15:09:36.524Z,26.10
2018-06-17T15:12:04.150Z,26.00
2018-06-17T15:14:32.487Z,26.00
2018-06-17T15:17:00.036Z,25.90
2018-06-17T15:19:27.586Z,25.80
2018-06-17T15:21:55.152Z,25.80
2018-06-17T15:24:22.713Z,25.80
2018-06-17T15:26:50.233Z,25.80
2018-06-17T15:29:17.769Z,25.70
2018-06-17T15:31:51.227Z,25.80
2018-06-17T15:34:24.576Z,25.80
2018-06-17T15:36:57.815Z,25.80
2018-06-17T15:39:31.117Z,25.70
2018-06-17T15:41:58.632Z,25.70
2018-06-17T15:44:26.154Z,25.70
2018-06-17T15:46:53.687Z,25.70
2018-06-17T15:49:21.628Z,25.60
2018-06-17T15:51:49.151Z,25.60
2018-06-17T15:54:16.687Z,25.60
2018-06-17T15:56:44.229Z,25.60
2018-06-17T15:59:11.773Z,25.60
2018-06-17T16:01:39.288Z,25.60
2018-06-17T16:04:06.849Z,25.60
2018-06-17T16:06:34.385Z,25.60
2018-06-17T16:09:01.929Z,25.50
2018-06-17T16:11:55.226Z,25.50
2018-06-17T16:14:28.460Z,25.30
2018-06-17T16:17:01.704Z,25.20
2018-06-17T16:19:34.904Z,24.90
2018-06-17T16:22:02.449Z,24.50
2018-06-17T16:24:29.953Z,24.10
2018-06-17T16:26:57.468Z,23.60
2018-06-17T16:29:25.012Z,23.10
2018-06-17T16:31:52.556Z,22.80
2018-06-17T16:34:20.051Z,22.70
2018-06-17T16:36:47.604Z,22.70
2018-06-17T16:39:15.099Z,22.60
2018-06-17T16:41:42.590Z,22.60
2018-06-17T16:44:10.761Z,22.70
2018-06-17T16:46:39.035Z,22.70
2018-06-17T16:49:06.991Z,22.70
2018-06-17T16:51:40.220Z,22.60
2018-06-17T16:55:15.101Z,22.60
2018-06-17T16:57:48.468Z,22.60
2018-06-17T17:00:39.339Z,22.60
2018-06-17T17:03:06.839Z,22.60
2018-06-17T17:05:34.347Z,22.60
2018-06-17T17:08:01.864Z,22.60
2018-06-17T17:10:29.570Z,22.60
2018-06-17T17:13:05.739Z,22.60
2018-06-17T17:15:33.246Z,22.60
2018-06-17T17:18:00.751Z,22.50
2018-06-17T17:20:28.264Z,22.40
2018-06-17T17:22:55.774Z,22.40
2018-06-17T17:25:23.271Z,22.30
2018-06-17T17:27:50.798Z,22.30
2018-06-17T17:30:25.520Z,22.20
2018-06-17T17:32:58.861Z,22.20
2018-06-17T17:35:32.259Z,22.10
2018-06-17T17:38:05.526Z,21.90
2018-06-17T17:40:40.561Z,21.70
2018-06-17T17:45:40.285Z,21.40
2018-06-17T17:48:07.812Z,21.30
2018-06-17T17:50:35.316Z,21.10
2018-06-17T17:53:02.989Z,21.10
2018-06-17T17:55:30.531Z,21.00
2018-06-17T17:57:58.075Z,20.90
2018-06-17T18:00:25.631Z,20.80
2018-06-17T18:02:53.211Z,20.80
2018-06-17T18:05:20.717Z,20.80
2018-06-17T18:07:48.229Z,20.80
2018-06-17T18:10:15.761Z,20.80
2018-06-17T18:12:43.274Z,20.80
2018-06-17T18:15:10.837Z,20.80
2018-06-17T18:17:38.376Z,20.80
2018-06-17T18:20:05.916Z,20.90
2018-06-17T18:22:33.455Z,21.00
2018-06-17T18:25:06.797Z,21.00
2018-06-17T18:27:40.198Z,21.10
2018-06-17T18:30:13.409Z,21.10
2018-06-17T18:32:46.636Z,21.10
2018-06-17T18:35:19.855Z,21.10
2018-06-17T18:37:47.404Z,21.00
2018-06-17T18:40:14.972Z,21.00
2018-06-17T18:42:42.472Z,20.90
2018-06-17T18:45:09.999Z,20.80
2018-06-17T18:47:37.519Z,20.80
2018-06-17T18:50:05.074Z,20.80
2018-06-17T18:52:32.599Z,20.70
2018-06-17T18:55:00.427Z,20.70
2018-06-17T18:57:27.952Z,20.60
2018-06-17T18:59:55.484Z,20.50
2018-06-17T19:02:23.013Z,20.50
2018-06-17T19:04:50.539Z,20.40
2018-06-17T19:07:18.057Z,20.40
2018-06-17T19:09:51.292Z,20.30
2018-06-17T19:12:24.640Z,20.20
2018-06-17T19:14:57.931Z,20.10
2018-06-17T19:17:31.760Z,20.00
2018-06-17T19:19:59.299Z,19.80
2018-06-17T19:22:26.819Z,19.60
2018-06-17T19:24:54.396Z,19.50
2018-06-17T19:27:21.927Z,19.30
2018-06-17T19:29:49.491Z,19.10
2018-06-17T19:32:17.008Z,19.10
2018-06-17T19:34:44.526Z,19.00
2018-06-17T19:37:12.052Z,18.90
2018-06-17T19:39:39.567Z,18.90
2018-06-17T19:42:07.109Z,18.90
2018-06-17T19:44:34.679Z,18.80
2018-06-17T19:47:02.234Z,18.80
2018-06-17T19:49:35.551Z,18.80
2018-06-17T19:52:08.839Z,18.70
2018-06-17T19:54:49.220Z,18.60
2018-06-17T19:57:22.557Z,18.60
2018-06-17T19:59:55.857Z,18.60
2018-06-17T20:02:23.393Z,18.50
2018-06-17T20:04:50.904Z,18.50
2018-06-17T20:07:18.439Z,18.40
2018-06-17T20:09:45.948Z,18.30
2018-06-17T20:12:13.476Z,18.20
2018-06-17T20:14:41.007Z,18.10
2018-06-17T20:17:08.519Z,18.00
2018-06-17T20:19:36.028Z,17.90
2018-06-17T20:22:03.545Z,17.80
2018-06-17T20:24:31.031Z,17.80
2018-06-17T20:26:58.585Z,17.70
2018-06-17T20:29:26.079Z,17.70
2018-06-17T20:31:59.403Z,17.60
2018-06-17T20:34:32.794Z,17.50
2018-06-17T20:37:05.987Z,17.50
2018-06-17T20:39:39.351Z,17.50
2018-06-17T20:42:12.749Z,17.40
2018-06-17T20:44:40.211Z,17.40
2018-06-17T20:47:07.728Z,17.40
2018-06-17T20:49:35.229Z,17.40
2018-06-17T20:52:02.755Z,17.50
2018-06-17T20:54:30.247Z,17.50
2018-06-17T20:56:57.773Z,17.60
2018-06-17T20:59:25.285Z,17.60
2018-06-17T21:04:20.391Z,17.70
2018-06-17T21:06:47.883Z,17.70
2018-06-17T21:09:15.398Z,17.80
2018-06-17T21:11:42.904Z,17.90
2018-06-17T21:14:10.415Z,17.90
2018-06-17T21:16:37.949Z,18.00
2018-06-17T21:19:11.206Z,18.00
2018-06-17T21:21:44.620Z,18.10
2018-06-17T21:24:17.968Z,18.10
2018-06-17T21:26:51.127Z,18.20
2018-06-17T21:32:22.453Z,18.30
2018-06-17T21:35:20.765Z,18.30
2018-06-17T21:37:48.270Z,18.40
2018-06-17T21:40:15.795Z,18.40
2018-06-17T21:42:43.299Z,18.40
2018-06-17T21:45:17.890Z,18.40
2018-06-17T21:48:13.582Z,18.50
2018-06-17T21:50:41.136Z,18.50
2018-06-17T21:53:26.435Z,18.50
2018-06-17T21:55:53.952Z,18.50
2018-06-17T21:58:27.396Z,18.60
2018-06-17T22:01:00.807Z,18.60
2018-06-17T22:03:28.337Z,18.60
2018-06-17T22:05:55.839Z,18.70
2018-06-17T22:08:29.249Z,18.70
2018-06-17T22:13:35.973Z,18.70
2018-06-17T22:16:09.251Z,18.70
2018-06-17T22:18:36.791Z,18.70
2018-06-17T22:21:04.307Z,18.70
2018-06-17T22:23:31.840Z,18.70
2018-06-17T22:25:59.351Z,18.70
2018-06-17T22:28:26.877Z,18.70
2018-06-17T22:30:54.393Z,18.70
2018-06-17T22:33:21.921Z,18.70
2018-06-17T22:35:49.461Z,18.80
2018-06-17T22:38:16.997Z,18.80
2018-06-17T22:40:44.519Z,18.80
2018-06-17T22:43:12.027Z,18.80
2018-06-17T22:45:39.556Z,18.80
2018-06-17T22:48:07.077Z,18.80
2018-06-17T22:50:34.612Z,18.80
2018-06-17T22:53:19.716Z,18.80
2018-06-17T22:55:47.257Z,18.70
2018-06-17T22:58:20.717Z,18.70
2018-06-17T23:00:53.963Z,18.70
2018-06-17T23:03:27.383Z,18.60
2018-06-17T23:06:00.661Z,18.60
2018-06-17T23:08:33.952Z,18.60
2018-06-17T23:11:01.479Z,18.60
2018-06-17T23:13:29.007Z,18.60
2018-06-17T23:15:56.548Z,18.60
2018-06-17T23:18:24.107Z,18.50
2018-06-17T23:20:51.777Z,18.50
2018-06-17T23:23:19.298Z,18.50
2018-06-17T23:25:46.837Z,18.50
2018-06-17T23:28:14.347Z,18.40
2018-06-17T23:33:09.472Z,18.40
2018-06-17T23:35:37.767Z,18.40
2018-06-17T23:38:05.302Z,18.40
2018-06-17T23:40:32.818Z,18.40
2018-06-17T23:43:00.330Z,18.30
2018-06-17T23:45:27.883Z,18.30
2018-06-17T23:48:01.198Z,18.30
2018-06-17T23:50:34.460Z,18.20
2018-06-17T23:53:07.769Z,18.20
2018-06-17T23:55:41.054Z,18.10
2018-06-17T23:58:08.581Z,18.10
